Time;durP1;ratioP1;P1;durP2;ratioP2;P2;SDS_P1;SDS_P2;PMS_P1;PMS_P2;Temp;Humidity;BMP_temperature;BMP_pressure;BME280_temperature;BME280_humidity;BME280_pressure;Samples;Min_cycle;Max_cycle;Signal;HPM_P1;HPM_P2
2022/05/25 00:04:11;;;;;;;8.88;8.08;;;;;;;14.73;75.09;100067.77;3428174;79;21775;-79
2022/05/25 00:09:04;;;;;;;8.53;7.65;;;;;;;14.71;75.30;100065.62;3476217;79;21019;-79
2022/05/25 00:13:55;;;;;;;9.28;8.33;;;;;;;14.73;75.54;100065.16;3523404;79;21138;-79
2022/05/25 00:23:55;;;;;;;8.83;8.13;;;;;;;14.79;75.69;100053.75;3461937;82;22424;-79
2022/05/25 00:28:46;;;;;;;9.40;8.50;;;;;;;14.79;75.78;100058.98;3405934;81;21666;-79
2022/05/25 00:33:37;;;;;;;8.58;7.87;;;;;;;14.74;75.73;100064.28;3461966;82;21449;-79
2022/05/25 00:38:28;;;;;;;9.40;8.30;;;;;;;14.72;75.88;100066.05;3484052;81;20934;-79
2022/05/25 00:43:19;;;;;;;9.23;8.43;;;;;;;14.71;76.03;100077.39;3415042;82;20978;-79
2022/05/25 00:48:18;;;;;;;9.55;8.63;;;;;;;14.70;76.05;100077.41;3438794;81;20955;-79
2022/05/25 00:53:10;;;;;;;9.18;8.25;;;;;;;14.68;76.24;100073.07;3452878;80;21312;-79
2022/05/25 00:58:01;;;;;;;8.85;8.05;;;;;;;14.70;76.40;100066.48;3462183;81;21030;-80
2022/05/25 01:03:08;;;;;;;9.03;8.18;;;;;;;14.69;76.40;100068.70;3447039;80;22222;-79
2022/05/25 01:08:39;;;;;;;12.03;8.80;;;;;;;14.67;76.51;100075.25;3455449;82;21514;-79
2022/05/25 01:14:04;;;;;;;11.10;9.25;;;;;;;14.69;76.64;100064.77;3433678;81;20974;-79
2022/05/25 01:19:21;;;;;;;9.08;8.40;;;;;;;14.73;76.70;100076.93;3430641;82;21030;-79
2022/05/25 01:24:41;;;;;;;10.08;9.28;;;;;;;14.66;76.87;100072.64;3256809;86;20987;-79
2022/05/25 01:30:05;;;;;;;9.48;8.60;;;;;;;14.68;76.98;100061.72;3188333;88;21034;-79
2022/05/25 01:35:21;;;;;;;10.18;9.08;;;;;;;14.69;77.06;100058.23;3191275;87;21046;-78
2022/05/25 01:40:30;;;;;;;10.40;9.18;;;;;;;14.70;77.09;100059.09;3358284;83;21021;-78
2022/05/25 01:45:24;;;;;;;11.80;10.53;;;;;;;14.70;77.28;100059.95;3272779;84;21773;-79
2022/05/25 01:50:20;;;;;;;9.73;8.93;;;;;;;14.72;77.33;100047.74;3352844;81;21005;-79
2022/05/25 01:55:29;;;;;;;9.40;8.70;;;;;;;14.71;77.25;100049.92;3293610;84;21053;-79
2022/05/25 02:00:34;;;;;;;10.23;9.35;;;;;;;14.66;77.31;100063.48;3368800;80;21018;-80
2022/05/25 02:05:25;;;;;;;10.80;9.80;;;;;;;14.69;77.71;100067.39;3482530;80;20970;-79
2022/05/25 02:10:47;;;;;;;10.95;9.85;;;;;;;14.72;77.69;100063.86;3493052;80;21461;-79
2022/05/25 02:15:55;;;;;;;10.23;9.43;;;;;;;14.71;77.69;100066.92;3494556;80;20960;-79
2022/05/25 02:21:04;;;;;;;10.68;9.68;;;;;;;14.71;77.81;100060.38;3515145;79;20959;-79
2022/05/25 02:26:10;;;;;;;10.68;9.78;;;;;;;14.71;78.06;100055.60;3454535;80;20945;-79
2022/05/25 02:31:04;;;;;;;10.95;9.95;;;;;;;14.67;77.99;100070.47;3492508;80;20973;-79
2022/05/25 02:35:59;;;;;;;10.00;9.10;;;;;;;14.65;77.96;100074.84;3436068;80;21038;-79
2022/05/25 02:40:50;;;;;;;13.22;11.08;;;;;;;14.65;78.04;100076.16;3440042;80;21504;-79
2022/05/25 02:45:42;;;;;;;11.48;9.35;;;;;;;14.64;78.09;100073.10;3439901;80;21033;-79
2022/05/25 02:50:35;;;;;;;9.28;8.48;;;;;;;14.64;78.03;100078.34;3472302;80;20904;-79
2022/05/25 02:55:26;;;;;;;10.78;9.70;;;;;;;14.60;78.05;100091.03;3412118;80;20936;-79
2022/05/25 03:00:17;;;;;;;10.75;9.75;;;;;;;14.58;78.29;100105.88;3434032;81;20992;-79
2022/05/25 03:05:11;;;;;;;12.47;11.48;;;;;;;14.60;78.37;100101.05;3454140;80;21014;-79
2022/05/25 03:10:04;;;;;;;11.30;10.23;;;;;;;14.62;78.47;100095.34;3471467;81;21091;-79
2022/05/25 03:14:55;;;;;;;13.00;11.80;;;;;;;14.63;78.38;100094.91;3473108;80;20961;-79
2022/05/25 03:19:54;;;;;;;13.75;11.05;;;;;;;14.65;78.54;100094.47;3435282;80;21119;-79
2022/05/25 03:24:46;;;;;;;10.98;9.98;;;;;;;14.64;78.43;100097.95;3403698;81;21221;-79
2022/05/25 03:29:37;;;;;;;12.23;11.12;;;;;;;14.62;78.47;100099.28;3386690;81;21509;-79
2022/05/25 03:34:28;;;;;;;12.63;11.63;;;;;;;14.66;78.62;100110.58;3412622;81;20969;-79
2022/05/25 03:39:19;;;;;;;12.20;11.15;;;;;;;14.71;78.71;100107.48;3434016;81;20994;-79
2022/05/25 03:44:13;;;;;;;12.75;11.75;;;;;;;14.83;78.63;100107.36;3481413;81;20919;-79
2022/05/25 03:49:04;;;;;;;13.68;12.37;;;;;;;14.94;78.57;100101.16;3461844;81;21974;-79
2022/05/25 03:53:56;;;;;;;13.95;12.75;;;;;;;15.05;78.50;100104.52;3439059;81;20963;-79
2022/05/25 03:58:47;;;;;;;16.32;14.90;;;;;;;15.16;78.45;100103.94;3453462;81;20943;-79
2022/05/25 04:03:38;;;;;;;16.85;15.35;;;;;;;15.27;78.59;100112.13;3470243;81;21717;-79
2022/05/25 04:08:29;;;;;;;16.10;14.68;;;;;;;15.34;78.70;100117.70;3471522;81;20955;-79
2022/05/25 04:13:22;;;;;;;18.37;16.75;;;;;;;15.41;78.61;100117.60;3465884;81;20966;-79
2022/05/25 04:18:13;;;;;;;16.48;14.85;;;;;;;15.49;78.68;100114.91;3472807;81;21065;-79
2022/05/25 04:23:10;;;;;;;16.10;13.65;;;;;;;15.61;78.62;100117.38;3458862;81;20947;-79
2022/05/25 04:28:01;;;;;;;15.68;14.10;;;;;;;15.73;78.49;100109.77;3416586;82;20947;-79
2022/05/25 04:32:53;;;;;;;16.35;14.78;;;;;;;15.83;78.45;100109.25;3439510;82;20931;-79
2022/05/25 04:37:52;;;;;;;15.38;14.07;;;;;;;15.95;78.34;100113.00;3437771;82;20966;-80
2022/05/25 04:42:45;;;;;;;16.00;14.47;;;;;;;16.11;78.51;100106.20;3413686;82;21026;-80
2022/05/25 04:47:37;;;;;;;15.70;14.20;;;;;;;16.24;78.23;100095.95;3395355;82;20966;-80
2022/05/25 04:52:30;;;;;;;15.72;14.28;;;;;;;16.46;77.87;100095.14;3386191;82;21010;-80
2022/05/25 04:57:22;;;;;;;14.10;12.80;;;;;;;16.71;77.70;100094.25;3415030;82;20978;-80
2022/05/25 05:02:15;;;;;;;15.05;13.55;;;;;;;17.02;77.42;100091.08;3426205;82;21441;-80
2022/05/25 05:07:06;;;;;;;15.15;13.58;;;;;;;17.17;76.86;100090.36;3460257;82;20982;-80
2022/05/25 05:11:58;;;;;;;14.53;13.03;;;;;;;17.37;76.86;100095.23;3417576;80;21602;-80
2022/05/25 05:16:58;;;;;;;16.67;15.10;;;;;;;17.48;76.55;100091.45;3411121;82;21416;-80
2022/05/25 05:21:54;;;;;;;14.75;13.30;;;;;;;17.68;75.93;100094.09;3444777;80;20983;-80
2022/05/25 05:26:45;;;;;;;13.22;11.80;;;;;;;17.93;76.23;100097.53;3490394;79;21563;-79
2022/05/25 05:31:36;;;;;;;11.75;10.75;;;;;;;18.19;75.54;100104.78;3487043;79;20966;-79
2022/05/25 05:36:33;;;;;;;14.40;12.90;;;;;;;18.27;75.26;100103.70;3485442;79;21359;-79
2022/05/25 05:41:29;;;;;;;11.38;10.38;;;;;;;18.45;75.53;100106.78;3539913;79;22062;-80
2022/05/25 05:46:21;;;;;;;11.07;9.97;;;;;;;18.63;74.63;100109.39;3488394;79;20994;-80
2022/05/25 05:51:13;;;;;;;11.97;10.98;;;;;;;18.61;74.25;100111.20;3501354;79;21132;-80
2022/05/25 05:56:05;;;;;;;12.05;10.95;;;;;;;18.63;74.42;100108.08;3459310;79;20974;-81
2022/05/25 06:00:56;;;;;;;13.00;11.60;;;;;;;18.82;74.40;100110.67;3529707;79;20991;-82
2022/05/25 06:05:47;;;;;;;11.57;10.45;;;;;;;19.03;73.85;100113.19;3441828;81;21528;-79
2022/05/25 06:10:39;;;;;;;12.10;11.00;;;;;;;19.06;73.49;100120.12;3447226;79;20967;-78
2022/05/25 06:20:39;;;;;;;13.20;12.00;;;;;;;19.24;73.17;100119.64;3467979;79;20958;-80
2022/05/25 06:25:30;;;;;;;12.50;11.30;;;;;;;19.21;72.92;100116.23;3439068;82;20872;-81
2022/05/25 06:30:21;;;;;;;13.65;12.45;;;;;;;19.16;72.79;100122.08;3461904;82;20998;-81
2022/05/25 06:35:13;;;;;;;12.55;11.35;;;;;;;19.19;72.92;100125.92;3447805;80;21002;-82
2022/05/25 06:40:06;;;;;;;13.48;12.23;;;;;;;19.25;72.57;100117.86;3435227;82;21770;-79
2022/05/25 06:44:57;;;;;;;13.20;12.00;;;;;;;19.30;72.83;100115.07;3442816;82;21485;-79
2022/05/25 06:49:54;;;;;;;12.03;10.88;;;;;;;19.29;72.45;100108.95;3387717;82;21485;-79
2022/05/25 06:54:45;;;;;;;12.98;11.75;;;;;;;19.14;72.84;100112.03;3415406;82;21018;-79
2022/05/25 06:59:36;;;;;;;14.65;13.15;;;;;;;18.91;72.80;100122.73;3439933;82;20949;-79
2022/05/25 07:04:27;;;;;;;14.68;11.70;;;;;;;18.90;73.11;100117.05;3435414;82;21358;-79
2022/05/25 07:09:18;;;;;;;14.30;13.00;;;;;;;19.10;73.09;100107.73;3461512;80;22117;-79
2022/05/25 07:14:10;;;;;;;13.65;12.43;;;;;;;19.34;72.59;100109.68;3414276;80;21028;-79
2022/05/25 07:19:03;;;;;;;15.30;13.72;;;;;;;19.56;72.36;100107.73;3464648;81;20970;-79
2022/05/25 07:23:57;;;;;;;15.10;13.55;;;;;;;19.69;71.71;100101.20;3427135;80;21129;-79
2022/05/25 07:28:51;;;;;;;14.35;12.95;;;;;;;19.63;71.85;100107.95;3485090;79;21194;-79
2022/05/25 07:33:45;;;;;;;14.13;12.82;;;;;;;19.65;71.93;100118.00;3436662;79;20998;-80
2022/05/25 07:38:42;;;;;;;13.90;12.55;;;;;;;19.53;71.65;100122.31;3429608;81;20918;-80
2022/05/25 07:43:34;;;;;;;15.63;14.13;;;;;;;19.46;72.17;100115.50;3449337;81;20997;-80
2022/05/25 07:48:26;;;;;;;14.33;12.78;;;;;;;19.45;71.57;100116.42;3457392;79;21285;-82
2022/05/25 07:58:27;;;;;;;15.00;13.60;;;;;;;19.48;71.77;100122.93;3460465;80;21092;-81
2022/05/25 08:08:28;;;;;;;14.47;13.28;;;;;;;19.61;71.78;100130.88;3498673;79;20998;-83
2022/05/25 08:13:21;;;;;;;13.65;12.30;;;;;;;19.61;71.34;100140.11;3485108;80;20990;-86
2022/05/25 08:18:15;;;;;;;14.05;12.78;;;;;;;19.59;71.61;100137.97;3492783;79;21468;-83
2022/05/25 08:23:10;;;;;;;14.63;13.25;;;;;;;19.54;71.53;100147.78;3450538;79;20958;-81
2022/05/25 08:28:02;;;;;;;14.45;13.22;;;;;;;19.54;71.48;100139.88;3452146;80;21564;-82
2022/05/25 08:32:54;;;;;;;15.68;14.20;;;;;;;19.48;71.72;100145.34;3468237;79;21413;-82
2022/05/25 08:37:44;;;;;;;13.72;12.35;;;;;;;19.41;71.90;100142.86;3442725;81;20961;-82
2022/05/25 08:42:47;;;;;;;14.93;13.13;;;;;;;19.33;72.18;100147.47;3457327;81;21002;-83
2022/05/25 08:47:46;;;;;;;16.45;14.70;;;;;;;19.27;72.39;100142.39;3508649;81;20930;-78
2022/05/25 08:52:38;;;;;;;14.33;13.03;;;;;;;19.24;72.54;100145.10;3463295;79;21009;-83
2022/05/25 08:57:34;;;;;;;15.18;13.90;;;;;;;19.23;72.71;100151.30;3452886;81;20974;-83
2022/05/25 09:02:50;;;;;;;16.48;14.07;;;;;;;19.19;72.73;100153.16;3498822;79;21575;-83
2022/05/25 09:07:54;;;;;;;14.28;12.93;;;;;;;19.18;72.65;100150.56;3535007;79;21154;-85
2022/05/25 09:12:50;;;;;;;14.78;13.28;;;;;;;19.23;72.49;100159.20;3490144;81;21531;-81
2022/05/25 09:17:47;;;;;;;;;;;;;;;19.21;72.43;100155.75;3484728;79;20916;-84
2022/05/25 09:22:41;;;;;;;15.67;14.20;;;;;;;19.23;72.59;100165.80;3523287;79;20452;-79
2022/05/25 09:27:40;;;;;;;14.43;13.15;;;;;;;19.16;72.71;100165.55;3478435;80;21512;-83
2022/05/25 09:32:43;;;;;;;17.82;16.20;;;;;;;19.14;72.70;100162.09;3487825;80;20988;-81
2022/05/25 09:37:43;;;;;;;15.50;14.03;;;;;;;19.15;72.72;100169.08;3498502;79;20990;-82
2022/05/25 09:42:37;;;;;;;17.32;15.70;;;;;;;19.12;72.77;100170.04;3498113;79;21096;-82
2022/05/25 09:47:41;;;;;;;18.20;16.45;;;;;;;18.95;72.97;100174.42;3444343;79;20970;-82
2022/05/25 09:52:47;;;;;;;16.75;15.13;;;;;;;18.81;73.20;100177.41;3489982;79;20959;-82
2022/05/25 09:57:52;;;;;;;18.32;16.55;;;;;;;18.76;73.34;100170.07;3488450;79;21381;-86
2022/05/25 10:02:54;;;;;;;24.18;21.60;;;;;;;18.75;73.75;100163.52;3479095;79;20958;-82
2022/05/25 10:08:09;;;;;;;29.55;26.55;;;;;;;18.72;73.86;100172.81;3511530;79;20923;-82
2022/05/25 10:13:05;;;;;;;32.28;27.87;;;;;;;18.53;73.93;100166.70;3456310;79;22191;-81
2022/05/25 10:17:56;;;;;;;37.83;30.32;;;;;;;18.28;74.20;100171.22;3451373;79;21406;-81
2022/05/25 10:22:51;;;;;;;41.63;31.55;;;;;;;18.08;74.67;100174.75;3517356;79;20982;-80
2022/05/25 10:27:44;;;;;;;44.67;33.38;;;;;;;17.89;75.25;100175.17;3442269;80;21068;-80
2022/05/25 10:37:53;;;;;;;42.15;33.20;;;;;;;17.65;75.96;100182.22;3496961;81;20965;-79
2022/05/25 10:42:45;;;;;;;39.67;34.35;;;;;;;17.44;76.46;100185.72;3497554;79;21520;-80
2022/05/25 10:47:57;;;;;;;36.73;32.73;;;;;;;17.33;76.89;100181.09;3477455;79;21109;-81
2022/05/25 10:53:10;;;;;;;34.25;30.55;;;;;;;17.24;77.18;100176.02;3502288;80;20973;-82
2022/05/25 10:58:15;;;;;;;38.73;32.93;;;;;;;17.27;77.55;100165.02;3499841;79;21032;-81
2022/05/25 11:03:28;;;;;;;31.33;28.02;;;;;;;17.23;77.56;100175.63;3524315;79;20927;-82
2022/05/25 11:08:34;;;;;;;26.12;22.67;;;;;;;17.13;77.58;100177.12;3332207;84;21530;-80
2022/05/25 11:13:51;;;;;;;25.62;23.02;;;;;;;17.05;77.36;100174.21;3320703;84;21113;-80
2022/05/25 11:18:59;;;;;;;25.12;22.62;;;;;;;16.93;77.39;100181.85;3231406;86;21070;-80
2022/05/25 11:24:15;;;;;;;24.85;22.13;;;;;;;16.89;77.57;100184.13;3191037;87;21044;-81
2022/05/25 11:30:04;;;;;;;19.70;17.67;;;;;;;16.82;77.69;100197.75;3168087;88;21025;-79
2022/05/25 11:35:21;;;;;;;18.80;17.00;;;;;;;16.72;77.70;100189.61;3186212;88;21007;-79
2022/05/25 11:40:38;;;;;;;16.37;14.83;;;;;;;16.58;77.86;100193.80;3117423;90;21590;-81
2022/05/25 11:45:52;;;;;;;;;;;;;;;16.61;78.03;100192.41;3204872;87;21032;-81
2022/05/25 11:51:00;;;;;;;15.95;14.35;;;;;;;16.59;78.27;100212.56;3234352;86;20420;-80
2022/05/25 11:56:42;;;;;;;13.62;12.53;;;;;;;16.61;78.56;100218.66;3265869;86;20995;-80
2022/05/25 12:01:42;;;;;;;12.80;11.50;;;;;;;16.60;78.40;100235.31;3295589;85;21605;-81
2022/05/25 12:06:58;;;;;;;10.68;9.15;;;;;;;16.55;77.99;100230.58;3288690;86;21447;-84
2022/05/25 12:12:37;;;;;;;11.12;10.23;;;;;;;16.47;77.84;100242.93;3260130;85;21050;-85
2022/05/25 12:17:46;;;;;;;11.25;8.95;;;;;;;16.30;77.97;100247.98;3248242;86;20971;-77
2022/05/25 12:22:43;;;;;;;10.32;9.48;;;;;;;16.22;77.80;100247.66;3222184;86;20995;-79
2022/05/25 12:27:48;;;;;;;10.70;9.68;;;;;;;16.14;77.69;100255.64;3295464;85;21624;-77
2022/05/25 12:32:40;;;;;;;9.95;9.15;;;;;;;16.11;77.85;100255.67;3288079;85;21039;-80
2022/05/25 12:37:36;;;;;;;11.00;10.03;;;;;;;16.15;77.60;100256.05;3284616;85;21035;-81
2022/05/25 12:42:32;;;;;;;8.40;7.60;;;;;;;16.18;77.66;100253.39;3259002;85;21027;-81
2022/05/25 12:52:43;;;;;;;8.10;7.30;;;;;;;16.27;77.79;100262.44;3419103;80;20998;-82
2022/05/25 12:57:42;;;;;;;8.43;7.37;;;;;;;16.00;77.06;100292.07;3419709;82;21023;-77
2022/05/25 13:02:35;;;;;;;5.42;4.92;;;;;;;15.89;76.82;100296.58;3450842;81;21017;-84
2022/05/25 13:07:45;;;;;;;5.12;4.72;;;;;;;15.77;76.59;100290.16;3449150;82;21213;-82
2022/05/25 13:12:44;;;;;;;6.85;6.05;;;;;;;15.67;76.37;100292.42;3463993;80;21231;-83
2022/05/25 13:17:53;;;;;;;7.10;6.20;;;;;;;15.56;77.19;100300.39;3430289;80;21215;-83
2022/05/25 13:22:45;;;;;;;8.18;6.45;;;;;;;15.42;76.90;100284.84;3459620;80;21106;-82
2022/05/25 13:28:13;;;;;;;7.25;6.65;;;;;;;15.37;77.14;100290.56;3446251;81;20986;-86
2022/05/25 13:33:23;;;;;;;5.95;5.33;;;;;;;15.25;77.18;100296.77;3439268;81;20939;-77
2022/05/25 13:38:42;;;;;;;4.60;4.10;;;;;;;15.16;77.12;100300.33;3432121;81;20966;-80
2022/05/25 13:43:55;;;;;;;6.03;5.00;;;;;;;15.08;77.01;100292.11;3452617;81;20915;-79
2022/05/25 13:48:53;;;;;;;5.70;5.10;;;;;;;14.97;77.21;100289.58;3456141;81;21360;-79
2022/05/25 13:53:44;;;;;;;3.92;3.60;;;;;;;14.91;77.07;100287.02;3373255;81;20985;-82
2022/05/25 13:58:42;;;;;;;3.15;2.95;;;;;;;14.86;76.49;100290.97;3407707;81;20970;-82
2022/05/25 14:03:35;;;;;;;8.60;6.65;;;;;;;14.79;76.54;100284.93;3441640;81;20965;-82
2022/05/25 14:13:57;;;;;;;7.95;5.67;;;;;;;14.62;76.53;100279.80;3461850;80;21033;-82
2022/05/25 14:18:58;;;;;;;4.35;3.25;;;;;;;14.63;76.57;100270.19;3406018;81;21487;-82
2022/05/25 14:23:49;;;;;;;5.25;4.25;;;;;;;14.64;76.57;100264.95;3390550;81;20970;-83
2022/05/25 14:28:43;;;;;;;5.05;3.37;;;;;;;14.66;76.42;100270.17;3393904;81;21039;-84
2022/05/25 14:33:34;;;;;;;3.40;3.10;;;;;;;14.71;76.46;100273.64;3447110;81;21030;-87
2022/05/25 14:38:37;;;;;;;3.22;2.92;;;;;;;14.76;76.65;100278.85;3410535;81;21176;-87
2022/05/25 14:43:39;;;;;;;3.87;3.52;;;;;;;14.79;76.56;100279.70;3472777;81;20974;-81
2022/05/25 14:48:30;;;;;;;4.40;3.95;;;;;;;14.82;76.79;100283.58;3396405;81;21000;-84
2022/05/25 14:53:28;;;;;;;5.03;3.12;;;;;;;14.87;76.59;100267.85;3408148;81;21043;-84
2022/05/25 14:58:37;;;;;;;4.80;3.35;;;;;;;14.93;76.64;100270.86;3424116;81;20961;-83
2022/05/25 15:03:50;;;;;;;3.90;3.20;;;;;;;14.92;76.34;100273.06;3422902;81;20979;-81
2022/05/25 15:08:53;;;;;;;3.62;3.05;;;;;;;14.81;76.58;100277.94;3475642;81;20987;-76
2022/05/25 15:18:54;;;;;;;3.30;3.00;;;;;;;14.56;76.89;100306.39;3429317;81;21061;-78
2022/05/25 15:23:57;;;;;;;3.72;3.42;;;;;;;14.48;76.89;100311.23;3447217;81;21665;-78
2022/05/25 15:28:48;;;;;;;3.08;2.87;;;;;;;14.41;77.11;100313.90;3483938;79;22235;-80
2022/05/25 15:33:44;;;;;;;4.10;3.75;;;;;;;14.31;77.23;100332.70;3451866;79;21253;-77
2022/05/25 15:38:38;;;;;;;6.20;3.45;;;;;;;14.28;77.71;100336.63;3496594;79;36924;-79
2022/05/25 15:43:29;;;;;;;5.30;4.30;;;;;;;14.26;77.70;100338.39;3434086;79;20967;-79
2022/05/25 15:48:24;;;;;;;4.75;3.87;;;;;;;14.23;77.73;100337.08;3455929;79;20964;-82
2022/05/25 15:53:15;;;;;;;6.33;5.58;;;;;;;14.24;78.12;100341.00;3476072;81;21062;-81
2022/05/25 15:58:08;;;;;;;5.00;4.35;;;;;;;14.23;77.95;100337.08;3431640;81;21021;-81
2022/05/25 16:03:17;;;;;;;5.08;4.58;;;;;;;14.20;78.20;100329.24;3480334;80;21484;-82
2022/05/25 16:13:18;;;;;;;4.83;4.42;;;;;;;14.28;78.41;100323.55;3510238;79;21554;-81
2022/05/25 16:18:09;;;;;;;5.90;5.30;;;;;;;14.24;78.58;100327.07;3458279;79;22180;-81
2022/05/25 16:23:00;;;;;;;5.27;4.30;;;;;;;14.23;78.39;100337.08;3482752;79;20902;-82
2022/05/25 16:27:53;;;;;;;4.95;4.53;;;;;;;14.20;78.62;100338.39;3521174;81;20947;-81
2022/05/25 16:32:44;;;;;;;5.67;5.20;;;;;;;14.16;78.76;100348.44;3484476;79;21014;-81
2022/05/25 16:37:35;;;;;;;6.83;5.60;;;;;;;14.16;78.88;100352.36;3426984;79;21056;-80
2022/05/25 16:42:27;;;;;;;4.92;4.47;;;;;;;14.09;79.05;100355.02;3492461;79;21250;-81
2022/05/25 16:47:18;;;;;;;4.70;4.30;;;;;;;14.09;78.76;100358.94;3462096;79;20926;-82
2022/05/25 16:52:10;;;;;;;7.12;3.47;;;;;;;14.01;78.37;100351.54;3489093;79;22205;-80
2022/05/25 16:57:01;;;;;;;7.83;3.67;;;;;;;13.85;77.99;100357.69;3467062;79;21015;-79
2022/05/25 17:01:52;;;;;;;5.20;3.37;;;;;;;13.77;78.16;100355.51;3453236;79;20997;-78
2022/05/25 17:06:46;;;;;;;3.47;3.17;;;;;;;13.71;78.36;100348.11;3507854;79;21264;-78
2022/05/25 17:11:38;;;;;;;5.62;3.37;;;;;;;13.67;78.55;100359.45;3426390;79;21181;-78
2022/05/25 17:16:29;;;;;;;4.40;3.67;;;;;;;13.65;78.77;100359.89;3444201;79;20973;-78
2022/05/25 17:21:26;;;;;;;3.62;3.33;;;;;;;13.62;78.58;100358.58;3442725;79;21014;-79
2022/05/25 17:26:17;;;;;;;3.00;2.77;;;;;;;13.61;78.84;100367.31;3436132;79;21519;-79
2022/05/25 17:31:09;;;;;;;3.80;3.35;;;;;;;13.59;78.79;100360.33;3448183;80;22058;-78
2022/05/25 17:46:19;;;;;;;3.90;3.50;;;;;;;13.54;79.08;100357.73;3433414;80;21002;-79
2022/05/25 17:51:11;;;;;;;4.55;3.92;;;;;;;13.57;79.06;100355.10;3521081;80;21745;-79
2022/05/25 17:56:02;;;;;;;8.53;4.67;;;;;;;13.54;79.24;100357.73;3425335;79;22376;-78
2022/05/25 18:00:54;;;;;;;5.90;4.20;;;;;;;13.54;79.25;100362.97;3466082;80;20982;-78
2022/05/25 18:05:46;;;;;;;9.05;5.72;;;;;;;13.57;79.33;100364.69;3445041;80;20949;-78
2022/05/25 18:10:38;;;;;;;6.33;4.95;;;;;;;13.52;79.08;100374.72;3484947;80;20999;-78
2022/05/25 18:15:30;;;;;;;8.35;5.53;;;;;;;13.46;79.31;100379.92;3431382;80;20955;-78
2022/05/25 18:20:25;;;;;;;10.18;5.80;;;;;;;13.39;79.37;100387.77;3473414;80;21041;-78
2022/05/25 18:25:17;;;;;;;7.05;5.67;;;;;;;13.28;79.27;100400.34;3446073;80;21109;-78
2022/05/25 18:30:11;;;;;;;8.05;6.03;;;;;;;13.28;79.59;100401.64;3423318;80;21034;-78
2022/05/25 18:35:02;;;;;;;5.65;5.00;;;;;;;13.29;79.62;100415.15;3406215;80;21033;-78
2022/05/25 18:39:53;;;;;;;7.10;4.80;;;;;;;13.21;79.51;100409.03;3484172;81;20940;-78
2022/05/25 18:44:46;;;;;;;6.20;5.60;;;;;;;13.21;79.83;100411.64;3471980;80;20986;-78
2022/05/25 18:49:37;;;;;;;7.87;5.53;;;;;;;13.15;79.66;100412.95;3484240;80;21006;-78
2022/05/25 18:54:28;;;;;;;9.38;6.45;;;;;;;13.10;79.87;100422.52;3486862;80;20975;-77
2022/05/25 18:59:19;;;;;;;7.00;6.27;;;;;;;13.11;79.99;100422.94;3477659;80;21157;-77
2022/05/25 19:04:10;;;;;;;8.80;7.40;;;;;;;13.08;80.17;100426.86;3382656;80;21280;-78
2022/05/25 19:09:02;;;;;;;7.60;6.80;;;;;;;13.06;80.10;100444.27;3476859;80;21593;-78
2022/05/25 19:13:53;;;;;;;8.13;7.42;;;;;;;13.01;80.13;100440.33;3439612;80;20998;-78
2022/05/25 19:18:44;;;;;;;7.75;7.00;;;;;;;12.99;80.15;100446.42;3436897;80;20988;-78
2022/05/25 19:23:56;;;;;;;7.35;6.65;;;;;;;12.95;80.23;100450.32;3465333;80;20943;-77
2022/05/25 19:28:47;;;;;;;7.65;6.87;;;;;;;12.91;80.16;100462.03;3534421;78;20971;-77
2022/05/25 19:33:45;;;;;;;7.10;6.40;;;;;;;12.87;80.38;100462.45;3432842;79;21059;-77
2022/05/25 19:38:35;;;;;;;9.30;7.83;;;;;;;12.86;80.11;100462.03;3445833;79;20963;-77
2022/05/25 19:43:51;;;;;;;8.30;7.50;;;;;;;12.82;80.38;100467.22;3477059;79;21065;-78
2022/05/25 19:48:43;;;;;;;9.23;7.17;;;;;;;12.81;80.37;100466.80;3542094;79;20958;-78
2022/05/25 19:53:39;;;;;;;10.20;7.90;;;;;;;12.76;80.42;100473.30;3457055;79;20962;-78
2022/05/25 19:58:32;;;;;;;8.73;7.92;;;;;;;12.74;80.49;100472.42;3473071;79;21522;-78
2022/05/25 20:03:24;;;;;;;10.18;7.80;;;;;;;12.72;80.51;100476.32;3492475;79;20994;-78
2022/05/25 20:08:16;;;;;;;9.15;8.28;;;;;;;12.69;80.49;100471.08;3465306;79;20951;-77
2022/05/25 20:13:10;;;;;;;10.15;8.25;;;;;;;12.66;80.28;100475.41;3484076;79;20951;-77
2022/05/25 20:18:01;;;;;;;8.08;7.30;;;;;;;12.57;80.15;100473.22;3488526;79;21553;-78
2022/05/25 20:22:54;;;;;;;7.62;6.92;;;;;;;12.50;80.20;100474.05;3449209;79;21784;-77
2022/05/25 20:27:45;;;;;;;10.70;7.60;;;;;;;12.40;80.21;100467.04;3419839;80;20998;-77
2022/05/25 20:32:37;;;;;;;10.03;8.23;;;;;;;12.32;80.08;100470.02;3458748;80;20978;-78
2022/05/25 20:37:28;;;;;;;8.65;7.65;;;;;;;12.24;80.15;100468.69;3473068;80;21535;-77
2022/05/25 20:42:20;;;;;;;9.10;8.20;;;;;;;12.22;80.35;100462.59;3460837;80;21045;-78
2022/05/25 20:47:12;;;;;;;11.28;8.58;;;;;;;12.22;80.41;100461.73;3418175;80;21001;-78
2022/05/25 20:52:04;;;;;;;10.63;9.53;;;;;;;12.20;80.30;100459.97;3444308;80;20975;-78
2022/05/25 20:56:56;;;;;;;11.15;10.00;;;;;;;12.16;80.24;100462.12;3454116;80;20994;-78
2022/05/25 21:01:47;;;;;;;12.05;10.60;;;;;;;12.13;80.36;100457.33;3495214;80;21073;-78
2022/05/25 21:06:38;;;;;;;11.08;9.80;;;;;;;12.12;80.55;100459.03;3419747;80;20948;-78
2022/05/25 21:11:29;;;;;;;13.35;10.85;;;;;;;12.15;80.67;100461.67;3440996;80;21964;-78
2022/05/25 21:16:23;;;;;;;14.40;11.65;;;;;;;12.14;80.71;100456.45;3406293;79;20974;-78
2022/05/25 21:21:14;;;;;;;12.58;10.32;;;;;;;12.11;80.83;100456.01;3463651;80;20902;-78
2022/05/25 21:26:07;;;;;;;13.43;12.10;;;;;;;12.11;80.89;100459.92;3401058;80;20998;-78
2022/05/25 21:36:13;;;;;;;14.25;12.85;;;;;;;12.17;81.15;100461.25;3463524;80;21237;-78
2022/05/25 21:41:05;;;;;;;13.00;10.98;;;;;;;12.19;81.15;100451.70;3496060;80;20993;-78
2022/05/25 21:51:06;;;;;;;16.35;14.65;;;;;;;12.06;80.90;100448.59;3453997;80;21017;-78
2022/05/25 21:55:57;;;;;;;15.40;13.75;;;;;;;11.99;80.99;100446.36;3430862;80;21223;-78
2022/05/25 22:00:53;;;;;;;14.05;12.58;;;;;;;11.80;80.67;100440.14;3457697;79;20911;-78
2022/05/25 22:05:44;;;;;;;15.45;13.83;;;;;;;11.80;80.67;100440.14;3454620;80;20974;-78
2022/05/25 22:10:35;;;;;;;14.63;13.05;;;;;;;11.74;80.73;100439.20;3460870;80;20923;-78
2022/05/25 22:15:26;;;;;;;18.15;16.17;;;;;;;11.66;80.55;100440.86;3462821;80;20963;-78
2022/05/25 22:20:18;;;;;;;16.57;14.87;;;;;;;11.56;80.61;100439.49;3427597;80;21509;-78
2022/05/25 22:25:09;;;;;;;14.78;13.13;;;;;;;11.49;80.64;100439.44;3447107;81;21190;-78
2022/05/25 22:30:00;;;;;;;15.53;13.83;;;;;;;11.45;80.92;100434.19;3429201;80;21060;-78
2022/05/25 22:34:52;;;;;;;15.35;13.50;;;;;;;11.39;80.62;100435.45;3426298;80;20962;-78
2022/05/25 22:39:43;;;;;;;16.90;14.98;;;;;;;11.36;80.78;100440.63;3442663;80;20949;-78
2022/05/25 22:44:35;;;;;;;15.13;13.58;;;;;;;11.37;80.86;100437.14;3425221;79;22061;-78
2022/05/25 22:49:27;;;;;;;17.70;15.08;;;;;;;11.39;81.11;100440.66;3447331;80;21538;-78
2022/05/25 22:54:19;;;;;;;17.37;15.18;;;;;;;11.42;81.09;100436.77;3486839;80;20998;-78
2022/05/25 22:59:10;;;;;;;14.83;13.43;;;;;;;11.41;81.12;100445.45;3475641;80;21033;-78
2022/05/25 23:04:00;;;;;;;16.10;13.48;;;;;;;11.57;83.44;100450.77;3467275;80;21342;-79
2022/05/25 23:08:53;;;;;;;15.05;12.30;;;;;;;11.77;83.87;100441.41;3396812;80;21625;-79
2022/05/25 23:13:44;;;;;;;13.78;12.33;;;;;;;11.94;84.29;100431.13;3457885;80;21915;-79
2022/05/25 23:18:36;;;;;;;12.15;10.82;;;;;;;12.04;83.83;100424.26;3465910;80;20928;-79
2022/05/25 23:23:28;;;;;;;11.22;10.32;;;;;;;12.09;83.71;100419.95;3417366;80;21030;-79
2022/05/25 23:33:29;;;;;;;10.53;9.50;;;;;;;12.15;83.33;100392.61;3497089;80;20982;-79
2022/05/25 23:38:20;;;;;;;12.20;10.50;;;;;;;12.18;83.27;100400.89;3406408;79;21076;-79
2022/05/25 23:48:20;;;;;;;10.45;9.05;;;;;;;12.19;83.13;100398.70;3474272;81;21551;-79
2022/05/25 23:53:12;;;;;;;8.73;7.92;;;;;;;12.18;83.12;100393.94;3462493;80;20962;-79
2022/05/25 23:58:03;;;;;;;7.90;7.08;;;;;;;12.18;82.97;100380.91;3427822;79;21485;-79
